Date,TemperatureHighF,TemperatureAvgF,TemperatureLowF,DewpointHighF,DewpointAvgF,DewpointLowF,HumidityHigh,HumidityAvg,HumidityLow,PressureMaxIn,PressureMinIn,WindSpeedMaxMPH,WindSpeedAvgMPH,GustSpeedMaxMPH,PrecipitationSumIn
2013-1-1,37,32,22,32,24,6,99,76,45,0.00,40.00,18,8,37,0.00
2013-1-2,30,21,11,11,7,0,71,54,43,0.00,40.00,13,6,32,0.00
2013-1-3,24,16,6,8,-2,-8,58,46,29,0.00,40.00,15,5,23,0.00
2013-1-4,38,29,16,32,22,8,100,77,56,0.00,40.00,13,4,25,0.00
2013-1-5,41,32,22,32,23,15,99,70,52,0.00,40.00,15,4,23,0.00
2013-1-6,43,34,22,32,29,15,100,83,66,0.00,40.00,10,4,20,0.00
2013-1-7,40,33,24,32,27,17,95,79,67,0.00,40.00,12,4,17,0.00
2013-1-8,47,37,21,32,28,17,100,72,55,0.00,40.00,15,5,29,0.00
2013-1-9,44,35,24,32,28,21,98,78,62,0.00,40.00,13,4,24,0.00
2013-1-10,46,40,29,32,32,28,99,73,57,0.00,40.00,21,8,40,0.00
2013-1-11,39,32,25,32,27,19,100,80,67,0.00,40.00,6,3,13,0.00
2013-1-12,43,40,37,32,32,32,82,73,66,0.00,40.00,6,2,10,0.00
2013-1-13,53,46,41,32,32,32,69,59,45,0.00,40.00,8,4,18,0.00
2013-1-14,60,52,41,32,31,-100,70,46,35,0.00,40.00,14,7,30,0.00
2013-1-15,41,39,33,32,32,31,96,77,70,0.00,40.00,8,3,12,0.00
2013-1-16,34,32,30,32,31,28,100,95,92,0.00,40.00,3,0,20,0.00
2013-1-17,41,36,31,32,31,29,95,84,70,0.00,40.00,14,5,21,0.00
2013-1-18,29,23,19,27,2,-4,93,42,29,0.00,40.00,14,7,32,0.00
2013-1-19,47,35,20,32,23,4,98,64,45,0.00,40.00,15,8,29,0.00
2013-1-20,54,42,29,32,29,7,100,62,41,0.00,40.00,18,11,37,0.00
2013-1-21,29,25,21,20,8,4,92,50,37,0.00,40.00,15,5,25,0.00
2013-1-22,23,20,12,20,6,-4,95,58,30,0.00,40.00,15,7,25,0.00
2013-1-23,15,10,6,-2,-8,-11,56,44,33,0.00,40.00,15,8,29,0.00
2013-1-24,20,9,2,-8,-10,-11,57,42,27,0.00,40.00,17,7,29,0.00
2013-1-25,23,15,7,8,-7,-11,69,37,24,0.00,40.00,10,6,18,0.00
2013-1-26,24,16,9,11,2,-6,95,58,32,0.00,40.00,15,7,29,0.00
2013-1-27,14,13,11,0,-1,-4,60,52,43,0.00,40.00,12,7,20,0.00
2013-1-28,31,27,26,26,18,4,96,74,34,0.00,40.00,7,2,12,0.00
2013-1-29,33,30,26,32,29,23,100,94,82,0.00,40.00,5,2,8,0.00
2013-1-30,60,47,33,32,32,32,95,61,35,0.00,40.00,13,8,28,0.00
2013-1-31,57,42,31,32,32,29,99,69,39,0.00,40.00,20,12,36,0.00
2013-2-1,32,28,23,29,11,4,93,50,32,0.00,40.00,14,9,29,0.00
2013-2-2,31,24,17,13,6,1,58,46,34,0.00,40.00,10,5,20,0.00
2013-2-3,28,24,20,20,17,12,87,75,57,0.00,40.00,7,3,15,0.00
2013-2-4,28,23,18,19,10,4,85,59,36,0.00,40.00,16,7,28,0.00
2013-2-5,26,23,20,21,12,7,90,63,54,0.00,40.00,6,2,10,0.00
2013-2-6,38,30,24,32,23,3,98,79,37,0.00,40.00,12,5,22,0.00
2013-2-7,31,24,17,10,3,0,58,42,27,0.00,40.00,8,3,15,0.00
2013-2-8,32,28,19,32,23,10,100,83,54,0.00,40.00,18,6,37,0.00
2013-2-9,24,20,15,16,10,2,93,68,52,0.00,40.00,20,14,36,0.00
2013-2-10,39,29,14,32,18,-1,97,67,30,0.00,40.00,10,5,20,0.00
2013-2-11,45,34,15,32,24,5,100,67,50,0.00,40.00,10,4,20,0.00
2013-2-12,43,38,34,32,32,32,94,80,65,0.00,40.00,15,6,30,0.00
2013-2-13,42,33,25,32,29,19,99,85,63,0.00,40.00,9,3,13,0.00
2013-2-14,44,35,29,32,29,21,100,79,63,0.00,40.00,10,4,17,0.00
2013-2-15,50,34,30,32,26,21,98,75,49,0.00,40.00,10,5,17,0.00
2013-2-16,36,32,29,32,31,27,100,94,85,0.00,40.00,13,5,17,0.00
2013-2-17,30,22,17,28,14,-1,93,74,37,0.00,40.00,24,13,37,0.00
2013-2-18,30,23,14,2,-1,-3,49,35,25,0.00,40.00,18,8,28,0.00
2013-2-19,48,34,18,32,21,1,100,58,37,0.00,40.00,12,5,21,0.00
2013-2-20,38,30,25,32,17,8,100,63,39,0.00,40.00,17,12,32,0.00
2013-2-21,34,27,24,32,13,9,100,56,38,0.00,40.00,18,11,28,0.00
2013-2-22,39,33,27,32,27,17,99,81,66,0.00,40.00,3,3,10,0.00
2013-2-23,38,34,30,32,30,24,96,87,77,0.00,40.00,5,3,13,0.00
2013-2-24,34,32,31,32,31,29,100,95,92,0.00,40.00,10,6,21,0.00
2013-2-25,37,30,29,32,29,27,93,93,83,0.00,40.00,5,2,15,0.00
2013-2-26,43,37,33,32,32,32,97,82,65,0.00,40.00,7,3,12,0.00
2013-2-27,42,39,36,33,32,32,86,76,67,0.00,40.00,10,5,22,0.00
2013-2-28,45,36,34,32,32,32,92,87,60,0.00,40.00,6,3,10,0.00
2013-3-1,43,38,31,32,32,29,100,79,66,0.00,40.00,10,-4,23,0.00
2013-3-2,42,37,33,32,32,32,94,84,69,0.00,40.00,8,6,14,0.00
2013-3-3,42,35,31,32,32,29,100,88,67,0.00,40.00,10,6,16,0.00
2013-3-4,40,34,28,32,29,18,100,85,59,0.00,40.00,17,10,28,0.00
2013-3-5,45,34,31,32,26,20,100,75,61,0.00,40.00,14,8,21,0.00
2013-3-6,37,35,34,32,32,32,91,89,81,0.00,40.00,12,7,27,0.00
2013-3-7,35,32,29,32,30,28,100,94,88,0.00,40.00,15,10,32,0.00
2013-3-8,38,30,29,32,28,27,93,93,79,0.00,40.00,15,9,27,0.00
2013-3-9,46,36,29,32,31,27,99,85,58,0.00,40.00,10,4,16,0.00
2013-3-10,46,35,22,32,29,20,98,80,58,0.00,40.00,7,3,16,0.00
2013-3-11,51,42,35,32,32,32,91,69,48,0.00,40.00,12,6,18,0.00
2013-3-12,54,50,42,32,32,32,67,52,43,0.00,40.00,18,9,30,0.00
2013-3-13,53,42,32,32,32,32,99,70,45,0.00,40.00,13,6,22,0.00
2013-3-14,34,31,26,32,29,8,100,91,38,0.00,40.00,14,5,28,0.00
2013-3-15,42,35,21,32,28,6,94,76,38,0.00,40.00,12,6,24,0.00
2013-3-16,41,34,28,32,29,15,100,82,56,0.00,40.00,10,4,17,0.00
2013-3-17,38,31,22,32,21,2,99,69,28,0.00,40.00,16,6,28,0.00
2013-3-18,38,27,18,32,11,-1,98,54,30,0.00,40.00,8,4,13,0.00
2013-3-19,34,31,28,32,30,27,100,95,92,0.00,40.00,10,5,17,0.00
2013-3-20,38,31,26,32,24,16,100,75,54,0.00,40.00,18,8,28,0.00
2013-3-21,36,29,24,32,22,17,100,75,57,0.00,40.00,8,2,14,0.00
2013-3-22,40,33,27,32,26,15,100,77,58,0.00,40.00,14,8,25,0.00
2013-3-23,35,31,28,32,21,17,99,69,58,0.00,40.00,13,7,25,0.00
2013-3-24,33,33,33,32,32,32,96,96,96,0.00,40.00,5,5,10,0.00
2013-3-25,39,35,31,32,28,24,76,76,75,0.00,40.00,5,2,17,0.00
2013-3-26,49,40,33,32,32,32,95,74,51,0.00,40.00,12,5,21,0.00
2013-3-27,53,42,27,32,28,18,99,61,45,0.00,40.00,14,6,25,0.00
2013-3-28,49,42,37,32,32,32,83,68,52,0.00,40.00,15,4,23,0.00
2013-3-29,57,46,33,32,32,31,96,61,39,0.00,40.00,13,5,20,0.00
2013-3-30,54,42,35,32,32,32,88,69,43,0.00,40.00,12,4,20,0.00
2013-3-31,56,55,51,32,32,32,48,42,40,0.00,40.00,12,10,16,0.00
2013-4-1,45,43,40,32,32,32,72,64,59,0.00,40.00,12,11,21,0.00
2013-4-2,40,34,29,32,27,10,100,79,42,0.00,40.00,17,9,33,0.00
2013-4-3,45,36,30,32,27,11,100,71,44,0.00,40.00,20,12,32,0.00
2013-4-4,57,41,28,32,26,13,100,59,39,0.00,40.00,10,6,20,0.00
2013-4-5,61,41,37,32,32,32,81,72,33,0.00,40.00,13,6,25,0.00
2013-4-6,35,34,33,32,32,32,98,92,87,0.00,40.00,8,6,15,0.00
2013-4-7,48,41,27,32,26,15,60,57,55,0.00,40.00,8,6,15,0.00
2013-4-8,47,46,45,32,32,32,59,57,55,0.00,40.00,6,4,14,0.00
2013-4-9,60,60,60,32,32,32,34,34,34,0.00,40.00,3,3,7,0.00
2013-4-10,68,52,45,32,32,32,59,49,27,0.00,40.00,2,2,8,0.00
2013-4-12,40,39,38,32,32,32,78,76,73,0.00,40.00,7,5,21,0.00
2013-4-13,49,48,48,32,32,32,54,54,53,0.00,40.00,2,1,5,0.00
2013-4-14,53,44,36,32,32,32,84,63,45,0.00,40.00,18,5,27,0.00
2013-4-15,58,42,31,32,31,26,100,68,38,0.00,40.00,8,3,18,0.00
2013-4-16,64,52,37,32,32,32,83,51,30,0.00,40.00,18,9,29,0.00
2013-4-17,68,56,47,32,32,32,56,41,26,0.00,40.00,13,6,24,0.00
2013-4-18,62,49,38,32,32,32,79,54,33,0.00,40.00,17,8,28,0.00
2013-4-19,72,60,51,32,32,31,48,36,22,0.00,40.00,18,9,36,0.00
2013-4-20,62,54,45,32,32,32,61,43,32,0.00,40.00,14,8,24,0.00
2013-4-21,50,40,35,32,32,32,89,75,51,0.00,40.00,17,10,27,0.00
2013-4-22,32,32,32,30,30,30,93,93,93,0.00,40.00,1,1,2,0.00
2013-4-23,42,41,38,32,32,32,78,70,67,0.00,40.00,10,5,21,0.00
2013-4-24,77,55,41,33,32,30,71,46,20,0.00,40.00,14,8,22,0.00
2013-4-25,66,55,44,33,32,32,63,43,28,0.00,40.00,16,7,24,0.00
2013-4-26,64,45,35,32,32,29,89,63,29,0.00,40.00,8,2,15,0.00
2013-4-27,65,55,40,32,32,32,74,44,29,0.00,40.00,14,7,20,0.00
2013-4-28,69,54,36,33,31,-100,86,47,26,0.00,40.00,16,6,25,0.00
2013-4-29,67,56,46,33,32,32,58,42,27,0.00,40.00,15,7,24,0.00
2013-4-30,73,57,41,32,32,32,71,42,22,0.00,40.00,13,4,20,0.00
2013-5-1,72,55,36,33,32,32,86,46,23,0.00,40.00,8,3,16,0.00
2013-5-2,78,57,43,33,32,26,65,43,19,0.00,40.00,8,3,20,0.00
2013-5-3,63,50,41,32,32,32,70,52,31,0.00,40.00,10,4,18,0.00
2013-5-4,62,49,36,32,32,32,86,55,33,0.00,40.00,9,3,22,0.00
2013-5-5,66,49,33,32,32,32,94,58,28,0.00,40.00,8,3,17,0.00
2013-5-6,75,54,40,33,32,26,74,46,21,0.00,40.00,13,4,20,0.00
2013-5-7,76,60,44,33,32,30,63,38,20,0.00,40.00,14,5,22,0.00
2013-5-8,72,63,55,33,32,31,41,32,22,0.00,40.00,15,5,24,0.00
2013-5-9,69,61,57,32,32,32,39,34,25,0.00,40.00,7,3,14,0.00
2013-5-10,79,59,54,32,32,32,44,37,18,0.00,40.00,7,3,10,0.00
2013-5-11,61,61,61,32,32,32,33,33,33,0.00,40.00,3,3,7,0.00
2013-5-12,59,59,59,32,32,32,37,37,37,0.00,40.00,6,6,8,0.00
2013-5-13,46,46,46,32,32,32,58,58,58,0.00,40.00,2,2,7,0.00
2013-5-16,82,38,74,-100,-100,-100,22,17,16,0.00,40.00,16,12,32,0.00
2013-5-17,67,50,66,-100,-100,-100,29,28,27,0.00,40.00,8,7,17,0.00
2013-6-13,67,66,66,46,45,45,47,47,47,0.00,40.00,6,5,9,0.00